Airfield :
LOGIN :

Register | Disclaimer

   EN    FR    IT 

 










Legend :    VFR   Marginal VFR   IFR   Intensive IFR   Very Intensive IFR
Visi :
Ceiling :
>= 8 km
>= 3000ft
5 to 8 km
1000 to 3000 ft
1500m to 5 km
500 to 1000 ft
800 to 1500m
200 to 500 ft
< 800m
< 200 ft
Symbols :   Thunderstorms  Fog  Heavy snow  Heavy precipitations  Wind > 20 kt
SIGMETs :     Misc.  Thunderstorms  Icing  Turbulence  Mountain Waves  Volcanic Ashes






- Airport Elevation : 187 ft


ETNW - Wunstorf AB

CURRENT METAR :
  • 021229Z 07010KT 9000 FEW009 BKN013 02/M00 Q1025 GRN WHT TEMPO YLO

EXPIRED METARs :
  • 021220Z 07010KT 7000 FEW009 BKN013 02/M01 Q1025 GRN GRN TEMPO AMB
  • 021120Z 08011KT 7000 BKN008 02/M00 Q1025 GRN GRN TEMPO AMB
  • 021105Z 08011KT 7000 BKN008 02/M00 Q1025 GRN GRN TEMPO AMB
  • 021020Z 08011KT 6000 BKN007 01/M00 Q1025 GRN GRN TEMPO AMB

TAF AMD TAF ETNW
Valid from the 02 at 12:00 until the 03 at 12:00 UTC


021234Z 0212/0312 08010KT 8000 NSW BKN015
TEMPO 0212/0312 07010KT 3000 -SN OVC005
PROB30 0302/0312 07010KT 2000 BR BKN003 BY ETGL



MET'MAP, your aeronautical weather chart ! - Copyright ORBIFLY December 2007 - Disclaimer

ORBIFLY MET'MAP TEAM :

Programming & Development : Alexandra Zaïnal
Original concept : Baudouin d'Aumeries
Technical & hardware support : Manuel Goepfert
Assistance : Marc-Olivier Méhu




SOURCES & CREDITS :

   NOAA